createdAt,value
2019-05-14T00:04:31.672Z,6.15
2019-05-14T00:09:38.394Z,6.24
2019-05-14T00:14:44.918Z,6.30
2019-05-14T00:20:05.885Z,6.27
2019-05-14T00:25:01.151Z,6.15
2019-05-14T00:30:11.325Z,5.95
2019-05-14T00:35:17.554Z,5.91
2019-05-14T00:40:24.012Z,5.90
2019-05-14T00:45:31.290Z,6.10
2019-05-14T00:50:37.958Z,6.29
2019-05-14T00:55:44.649Z,6.39
2019-05-14T01:00:52.472Z,6.33
2019-05-14T01:05:59.526Z,6.34
2019-05-14T01:11:06.132Z,6.41
2019-05-14T01:16:12.763Z,6.35
2019-05-14T01:21:21.796Z,6.40
2019-05-14T01:26:27.603Z,6.42
2019-05-14T01:31:34.307Z,6.49
2019-05-14T01:36:41.537Z,6.47
2019-05-14T01:41:51.514Z,6.38
2019-05-14T01:46:57.447Z,6.34
2019-05-14T01:52:04.073Z,6.08
2019-05-14T01:57:11.556Z,5.95
2019-05-14T02:02:18.362Z,5.82
2019-05-14T02:07:24.964Z,5.53
2019-05-14T02:12:31.691Z,5.35
2019-05-14T02:17:38.279Z,5.28
2019-05-14T02:22:44.951Z,5.00
2019-05-14T02:27:51.997Z,4.74
2019-05-14T02:32:59.563Z,4.63
2019-05-14T02:38:10.113Z,4.55
2019-05-14T02:43:14.837Z,4.31
2019-05-14T02:48:21.609Z,4.29
2019-05-14T02:53:29.644Z,4.16
2019-05-14T02:58:39.884Z,4.02
2019-05-14T03:03:45.005Z,3.85
2019-05-14T03:08:51.563Z,3.65
2019-05-14T03:13:59.922Z,3.48
2019-05-14T03:19:09.754Z,3.34
2019-05-14T03:24:15.177Z,3.18
2019-05-14T03:29:25.756Z,3.14
2019-05-14T03:34:32.823Z,3.17
2019-05-14T03:39:39.678Z,3.10
2019-05-14T03:44:48.991Z,3.15
2019-05-14T03:49:54.795Z,3.15
2019-05-14T03:55:04.769Z,3.15
2019-05-14T04:00:10.695Z,3.12
2019-05-14T04:05:21.639Z,3.12
2019-05-14T04:10:26.051Z,3.13
2019-05-14T04:15:35.067Z,3.29
2019-05-14T04:20:44.335Z,3.44
2019-05-14T04:25:54.320Z,3.57
2019-05-14T04:31:00.853Z,3.78
2019-05-14T04:36:09.909Z,4.08
2019-05-14T04:41:19.198Z,4.56
2019-05-14T04:46:24.202Z,5.28
2019-05-14T04:51:30.942Z,6.88
2019-05-14T04:56:39.796Z,7.08
2019-05-14T05:01:48.977Z,6.90
2019-05-14T05:06:53.847Z,7.12
2019-05-14T05:12:00.401Z,7.03
2019-05-14T05:17:09.109Z,7.34
2019-05-14T05:22:15.180Z,7.42
2019-05-14T05:27:21.641Z,7.81
2019-05-14T05:32:28.650Z,7.89
2019-05-14T05:37:35.416Z,8.16
2019-05-14T05:42:41.955Z,8.24
2019-05-14T05:47:57.431Z,8.36
2019-05-14T05:52:58.504Z,8.52
2019-05-14T05:58:05.026Z,8.87
2019-05-14T06:03:11.724Z,9.02
2019-05-14T06:08:18.867Z,8.99
2019-05-14T06:13:25.660Z,9.35
2019-05-14T06:18:34.417Z,9.99
2019-05-14T06:23:40.277Z,9.97
2019-05-14T06:28:48.919Z,10.17
2019-05-14T06:33:55.043Z,10.16
2019-05-14T06:39:01.677Z,10.56
2019-05-14T06:44:09.174Z,10.94
2019-05-14T06:49:18.205Z,10.73
2019-05-14T06:54:24.274Z,10.88
2019-05-14T06:59:30.909Z,10.91
2019-05-14T07:04:39.419Z,11.22
2019-05-14T07:09:45.675Z,11.39
2019-05-14T07:14:52.421Z,11.99
2019-05-14T07:19:59.155Z,11.52
2019-05-14T07:25:09.501Z,12.50
2019-05-14T07:30:16.116Z,12.06
2019-05-14T07:35:22.804Z,11.37
2019-05-14T07:40:29.378Z,11.21
2019-05-14T07:45:38.374Z,11.05
2019-05-14T07:50:48.126Z,10.58
2019-05-14T07:55:53.111Z,10.79
2019-05-14T08:00:59.881Z,11.09
2019-05-14T08:06:08.305Z,11.52
2019-05-14T08:11:15.303Z,12.54
2019-05-14T08:16:21.987Z,13.14
2019-05-14T08:21:29.002Z,13.73
2019-05-14T08:26:38.208Z,13.66
2019-05-14T08:31:45.015Z,13.51
2019-05-14T08:36:51.729Z,14.00
2019-05-14T08:42:03.102Z,14.68
2019-05-14T08:47:08.912Z,14.43
2019-05-14T08:52:16.128Z,13.15
2019-05-14T08:57:23.098Z,13.29
2019-05-14T09:02:29.786Z,13.17
2019-05-14T09:07:38.534Z,12.66
2019-05-14T09:12:45.283Z,12.81
2019-05-14T09:17:51.942Z,13.13
2019-05-14T09:22:59.463Z,12.44
2019-05-14T09:28:08.918Z,12.78
2019-05-14T09:33:14.732Z,12.60
2019-05-14T09:38:21.692Z,12.72
2019-05-14T09:43:28.721Z,12.37
2019-05-14T09:48:37.821Z,12.72
2019-05-14T09:53:43.956Z,13.69
2019-05-14T09:58:50.562Z,14.74
2019-05-14T10:03:59.277Z,13.71
2019-05-14T10:09:08.556Z,12.89
2019-05-14T10:14:15.437Z,12.74
2019-05-14T10:19:22.244Z,12.71
2019-05-14T10:24:29.262Z,13.65
2019-05-14T10:29:35.953Z,12.72
2019-05-14T10:34:42.646Z,11.95
2019-05-14T10:39:49.241Z,12.05
2019-05-14T10:44:58.519Z,13.40
2019-05-14T10:50:05.856Z,13.52
2019-05-14T10:55:12.617Z,14.49
2019-05-14T11:00:19.871Z,14.55
2019-05-14T11:05:28.121Z,13.78
2019-05-14T11:10:34.978Z,13.76
2019-05-14T11:15:41.701Z,13.63
2019-05-14T11:20:51.615Z,13.53
2019-05-14T11:25:58.141Z,14.34
2019-05-14T11:31:04.913Z,15.06
2019-05-14T11:36:11.535Z,15.53
2019-05-14T11:41:18.730Z,15.21
2019-05-14T11:46:40.754Z,14.44
2019-05-14T11:51:58.710Z,14.20
2019-05-14T11:56:42.364Z,14.85
2019-05-14T12:01:49.428Z,16.01
2019-05-14T12:06:58.895Z,15.64
2019-05-14T12:12:04.581Z,14.79
2019-05-14T12:17:11.249Z,14.11
2019-05-14T12:22:19.023Z,13.99
2019-05-14T12:27:25.980Z,14.08
2019-05-14T12:32:32.622Z,13.72
2019-05-14T12:37:39.306Z,13.13
2019-05-14T12:42:49.655Z,12.83
2019-05-14T12:47:55.409Z,12.83
2019-05-14T12:53:02.001Z,13.17
2019-05-14T12:58:08.578Z,13.94
2019-05-14T13:03:15.179Z,14.99
2019-05-14T13:08:21.902Z,15.81
2019-05-14T13:13:29.022Z,14.99
2019-05-14T13:18:38.438Z,14.10
2019-05-14T13:23:44.272Z,13.38
2019-05-14T13:28:51.236Z,13.17
2019-05-14T13:33:59.464Z,12.50
2019-05-14T13:39:09.215Z,12.23
2019-05-14T13:44:24.005Z,11.99
2019-05-14T13:49:24.056Z,11.76
2019-05-14T13:54:31.957Z,11.76
2019-05-14T13:59:43.984Z,11.70
2019-05-14T14:04:48.307Z,11.97
2019-05-14T14:09:55.052Z,11.91
2019-05-14T14:15:01.645Z,12.05
2019-05-14T14:20:09.032Z,12.15
2019-05-14T14:25:17.701Z,12.63
2019-05-14T14:30:25.546Z,12.64
2019-05-14T14:35:32.220Z,12.34
2019-05-14T14:40:39.586Z,12.16
2019-05-14T14:45:50.363Z,12.15
2019-05-14T14:50:54.844Z,12.04
2019-05-14T14:56:01.563Z,11.89
2019-05-14T15:01:08.908Z,12.06
2019-05-14T15:06:16.823Z,12.29
2019-05-14T15:11:23.539Z,12.63
2019-05-14T15:16:30.105Z,12.77
2019-05-14T15:21:36.758Z,12.64
2019-05-14T15:26:43.462Z,12.32
2019-05-14T15:31:50.153Z,12.01
2019-05-14T15:36:59.586Z,11.87
2019-05-14T15:42:06.677Z,11.77
2019-05-14T15:47:13.643Z,12.66
2019-05-14T15:52:20.288Z,13.30
2019-05-14T15:57:28.845Z,13.26
2019-05-14T16:02:35.390Z,12.71
2019-05-14T16:07:42.043Z,12.33
2019-05-14T16:12:49.636Z,12.00
2019-05-14T16:18:08.215Z,12.05
2019-05-14T16:23:05.118Z,12.01
2019-05-14T16:28:12.927Z,12.09
2019-05-14T16:33:19.622Z,11.76
2019-05-14T16:38:28.509Z,11.45
2019-05-14T16:43:34.757Z,11.43
2019-05-14T16:48:41.630Z,11.58
2019-05-14T16:53:49.248Z,11.92
2019-05-14T16:58:58.293Z,12.42
2019-05-14T17:04:05.186Z,12.19
2019-05-14T17:09:11.978Z,12.39
2019-05-14T17:14:18.699Z,13.27
2019-05-14T17:19:25.335Z,12.77
2019-05-14T17:24:31.915Z,12.17
2019-05-14T17:29:38.939Z,11.82
2019-05-14T17:34:45.879Z,11.54
2019-05-14T17:39:52.670Z,11.16
2019-05-14T17:44:59.541Z,10.99
2019-05-14T17:50:07.066Z,10.68
2019-05-14T17:55:14.171Z,10.53
2019-05-14T18:00:24.050Z,10.37
2019-05-14T18:05:30.646Z,10.18
2019-05-14T18:10:39.192Z,9.99
2019-05-14T18:15:45.638Z,9.70
2019-05-14T18:20:52.095Z,9.63
2019-05-14T18:26:07.364Z,9.57
2019-05-14T18:31:09.504Z,9.45
2019-05-14T18:36:19.069Z,9.27
2019-05-14T18:41:24.817Z,9.07
2019-05-14T18:46:33.042Z,8.94
2019-05-14T18:51:39.741Z,8.73
2019-05-14T18:56:48.718Z,8.61
2019-05-14T19:01:54.856Z,8.30
2019-05-14T19:07:01.393Z,8.17
2019-05-14T19:12:08.388Z,8.03
2019-05-14T19:17:15.228Z,7.93
2019-05-14T19:22:21.688Z,7.73
2019-05-14T19:27:28.581Z,7.63
2019-05-14T19:32:35.453Z,7.45
2019-05-14T19:37:42.016Z,7.25
2019-05-14T19:42:48.708Z,7.18
2019-05-14T19:47:55.230Z,7.06
2019-05-14T19:53:01.693Z,6.89
2019-05-14T19:58:08.289Z,6.89
2019-05-14T20:03:14.863Z,6.77
2019-05-14T20:08:21.428Z,6.66
2019-05-14T20:13:28.973Z,6.64
2019-05-14T20:18:38.055Z,6.49
2019-05-14T20:23:43.838Z,6.43
2019-05-14T20:28:50.353Z,6.38
2019-05-14T20:33:59.049Z,6.22
2019-05-14T20:39:08.718Z,6.18
2019-05-14T20:44:15.107Z,6.18
2019-05-14T20:49:21.690Z,6.07
2019-05-14T20:54:29.021Z,6.02
2019-05-14T20:59:48.307Z,6.07
2019-05-14T21:04:55.810Z,5.92
2019-05-14T21:10:03.294Z,5.80
2019-05-14T21:15:10.615Z,5.77
2019-05-14T21:20:18.470Z,5.64
2019-05-14T21:25:25.089Z,5.56
2019-05-14T21:30:31.700Z,5.44
2019-05-14T21:35:38.914Z,5.38
2019-05-14T21:40:45.900Z,5.33
2019-05-14T21:45:52.421Z,5.24
2019-05-14T21:51:00.896Z,5.19
2019-05-14T21:56:07.351Z,5.12
2019-05-14T22:01:14.065Z,5.05
2019-05-14T22:06:21.760Z,4.89
2019-05-14T22:11:28.371Z,4.86
2019-05-14T22:16:34.938Z,4.77
2019-05-14T22:21:42.002Z,4.76
2019-05-14T22:26:48.680Z,4.65
2019-05-14T22:31:55.132Z,4.51
2019-05-14T22:37:01.734Z,4.46
2019-05-14T22:42:09.211Z,4.33
2019-05-14T22:47:16.080Z,4.10
2019-05-14T22:52:22.600Z,3.97
2019-05-14T22:57:31.096Z,3.85
2019-05-14T23:02:38.248Z,3.77
2019-05-14T23:07:44.868Z,3.58
2019-05-14T23:12:51.406Z,3.51
2019-05-14T23:17:58.833Z,3.38
2019-05-14T23:23:09.057Z,3.32
2019-05-14T23:28:14.834Z,3.17
2019-05-14T23:33:21.433Z,3.08
2019-05-14T23:38:29.042Z,2.99
2019-05-14T23:43:35.860Z,2.92
2019-05-14T23:48:42.523Z,2.85
2019-05-14T23:53:48.971Z,2.82
2019-05-14T23:58:59.455Z,2.80
